sensor_id;sensor_type;location;lat;lon;timestamp;P1;durP1;ratioP1;P2;durP2;ratioP2
2928;SDS011;1474;51.460;7.150;2024-01-16T06:01:24;1.00;;;0.90;;
2928;SDS011;1474;51.460;7.150;2024-01-16T06:03:50;1.52;;;1.00;;
2928;SDS011;1474;51.460;7.150;2024-01-16T06:06:16;1.95;;;1.00;;
2928;SDS011;1474;51.460;7.150;2024-01-16T06:08:42;2.08;;;1.00;;
2928;SDS011;1474;51.460;7.150;2024-01-16T06:11:07;1.50;;;0.80;;
2928;SDS011;1474;51.460;7.150;2024-01-16T06:13:33;1.63;;;0.90;;
2928;SDS011;1474;51.460;7.150;2024-01-16T06:15:59;0.68;;;0.68;;
2928;SDS011;1474;51.460;7.150;2024-01-16T06:18:24;1.95;;;1.00;;
2928;SDS011;1474;51.460;7.150;2024-01-16T06:20:50;2.47;;;0.80;;
2928;SDS011;1474;51.460;7.150;2024-01-16T06:23:16;1.20;;;0.80;;
2928;SDS011;1474;51.460;7.150;2024-01-16T06:25:42;1.67;;;0.80;;
2928;SDS011;1474;51.460;7.150;2024-01-16T06:28:07;1.45;;;1.00;;
2928;SDS011;1474;51.460;7.150;2024-01-16T06:30:33;1.00;;;0.80;;
2928;SDS011;1474;51.460;7.150;2024-01-16T06:32:59;1.73;;;0.85;;
2928;SDS011;1474;51.460;7.150;2024-01-16T06:35:25;0.80;;;0.77;;
2928;SDS011;1474;51.460;7.150;2024-01-16T06:37:51;1.83;;;0.90;;
2928;SDS011;1474;51.460;7.150;2024-01-16T06:40:17;0.93;;;0.80;;
2928;SDS011;1474;51.460;7.150;2024-01-16T06:42:42;1.42;;;0.98;;
2928;SDS011;1474;51.460;7.150;2024-01-16T06:45:08;0.77;;;0.70;;
2928;SDS011;1474;51.460;7.150;2024-01-16T06:47:34;1.42;;;1.00;;
2928;SDS011;1474;51.460;7.150;2024-01-16T06:50:00;1.40;;;0.88;;
2928;SDS011;1474;51.460;7.150;2024-01-16T06:52:26;2.03;;;0.95;;
2928;SDS011;1474;51.460;7.150;2024-01-16T06:54:52;1.63;;;0.90;;
2928;SDS011;1474;51.460;7.150;2024-01-16T06:57:17;1.15;;;0.80;;
2928;SDS011;1474;51.460;7.150;2024-01-16T06:59:43;1.30;;;0.90;;
2928;SDS011;1474;51.460;7.150;2024-01-16T07:02:09;1.65;;;1.00;;
2928;SDS011;1474;51.460;7.150;2024-01-16T07:04:35;1.20;;;0.82;;
2928;SDS011;1474;51.460;7.150;2024-01-16T07:07:00;1.60;;;1.00;;
2928;SDS011;1474;51.460;7.150;2024-01-16T07:09:26;0.88;;;0.88;;
2928;SDS011;1474;51.460;7.150;2024-01-16T07:11:52;1.95;;;1.10;;
2928;SDS011;1474;51.460;7.150;2024-01-16T07:14:19;1.40;;;0.90;;
2928;SDS011;1474;51.460;7.150;2024-01-16T07:16:45;1.40;;;0.90;;
2928;SDS011;1474;51.460;7.150;2024-01-16T07:19:11;2.30;;;1.23;;
2928;SDS011;1474;51.460;7.150;2024-01-16T07:21:38;1.48;;;1.38;;
2928;SDS011;1474;51.460;7.150;2024-01-16T07:24:04;2.20;;;1.27;;
2928;SDS011;1474;51.460;7.150;2024-01-16T07:26:30;1.38;;;1.00;;
2928;SDS011;1474;51.460;7.150;2024-01-16T07:28:56;1.75;;;1.33;;
2928;SDS011;1474;51.460;7.150;2024-01-16T07:31:22;1.95;;;1.40;;
2928;SDS011;1474;51.460;7.150;2024-01-16T07:33:48;1.13;;;1.00;;
2928;SDS011;1474;51.460;7.150;2024-01-16T07:36:14;1.50;;;1.15;;
2928;SDS011;1474;51.460;7.150;2024-01-16T07:38:40;1.33;;;1.10;;
2928;SDS011;1474;51.460;7.150;2024-01-16T07:41:06;1.77;;;1.20;;
2928;SDS011;1474;51.460;7.150;2024-01-16T07:43:32;1.55;;;1.20;;
2928;SDS011;1474;51.460;7.150;2024-01-16T07:45:58;1.77;;;1.20;;
2928;SDS011;1474;51.460;7.150;2024-01-16T07:48:24;2.83;;;1.30;;
2928;SDS011;1474;51.460;7.150;2024-01-16T07:50:50;2.00;;;1.17;;
2928;SDS011;1474;51.460;7.150;2024-01-16T07:53:16;1.75;;;1.52;;
2928;SDS011;1474;51.460;7.150;2024-01-16T07:55:42;1.98;;;1.35;;
2928;SDS011;1474;51.460;7.150;2024-01-16T07:58:10;1.92;;;1.25;;
2928;SDS011;1474;51.460;7.150;2024-01-16T08:00:36;4.10;;;1.40;;
2928;SDS011;1474;51.460;7.150;2024-01-16T08:03:02;1.95;;;1.50;;
2928;SDS011;1474;51.460;7.150;2024-01-16T08:05:29;1.33;;;1.20;;
2928;SDS011;1474;51.460;7.150;2024-01-16T08:07:55;1.38;;;1.10;;
2928;SDS011;1474;51.460;7.150;2024-01-16T08:10:24;1.60;;;1.48;;
2928;SDS011;1474;51.460;7.150;2024-01-16T08:12:50;2.10;;;1.40;;
2928;SDS011;1474;51.460;7.150;2024-01-16T08:15:16;1.60;;;1.20;;
2928;SDS011;1474;51.460;7.150;2024-01-16T08:17:42;1.90;;;1.30;;
2928;SDS011;1474;51.460;7.150;2024-01-16T08:20:08;2.08;;;1.10;;
2928;SDS011;1474;51.460;7.150;2024-01-16T08:22:35;2.15;;;1.42;;
2928;SDS011;1474;51.460;7.150;2024-01-16T08:25:02;2.78;;;1.13;;
2928;SDS011;1474;51.460;7.150;2024-01-16T08:27:30;2.45;;;1.50;;
2928;SDS011;1474;51.460;7.150;2024-01-16T08:29:56;1.95;;;1.20;;
2928;SDS011;1474;51.460;7.150;2024-01-16T08:32:22;2.42;;;1.50;;
2928;SDS011;1474;51.460;7.150;2024-01-16T08:34:48;1.67;;;1.10;;
2928;SDS011;1474;51.460;7.150;2024-01-16T08:37:13;0.98;;;0.93;;
2928;SDS011;1474;51.460;7.150;2024-01-16T08:39:39;1.17;;;1.08;;
2928;SDS011;1474;51.460;7.150;2024-01-16T08:42:05;1.40;;;0.90;;
2928;SDS011;1474;51.460;7.150;2024-01-16T08:44:31;1.98;;;1.00;;
2928;SDS011;1474;51.460;7.150;2024-01-16T08:46:57;2.60;;;1.30;;
2928;SDS011;1474;51.460;7.150;2024-01-16T08:49:24;1.50;;;1.10;;
2928;SDS011;1474;51.460;7.150;2024-01-16T08:51:50;2.55;;;1.27;;
2928;SDS011;1474;51.460;7.150;2024-01-16T08:54:16;1.73;;;0.93;;
2928;SDS011;1474;51.460;7.150;2024-01-16T08:56:41;0.95;;;0.80;;
2928;SDS011;1474;51.460;7.150;2024-01-16T08:59:07;1.88;;;0.93;;
2928;SDS011;1474;51.460;7.150;2024-01-16T09:01:35;2.63;;;1.15;;
2928;SDS011;1474;51.460;7.150;2024-01-16T09:04:01;3.08;;;1.15;;
2928;SDS011;1474;51.460;7.150;2024-01-16T09:06:26;1.33;;;1.00;;
2928;SDS011;1474;51.460;7.150;2024-01-16T09:08:52;3.47;;;1.38;;
2928;SDS011;1474;51.460;7.150;2024-01-16T09:11:18;2.95;;;1.27;;
2928;SDS011;1474;51.460;7.150;2024-01-16T09:13:43;1.50;;;1.08;;
2928;SDS011;1474;51.460;7.150;2024-01-16T09:16:09;1.83;;;1.20;;
2928;SDS011;1474;51.460;7.150;2024-01-16T09:18:35;1.95;;;1.00;;
2928;SDS011;1474;51.460;7.150;2024-01-16T09:21:01;1.80;;;1.00;;
2928;SDS011;1474;51.460;7.150;2024-01-16T09:23:27;1.35;;;1.00;;
2928;SDS011;1474;51.460;7.150;2024-01-16T09:25:53;2.35;;;1.10;;
2928;SDS011;1474;51.460;7.150;2024-01-16T09:28:18;2.45;;;1.20;;
2928;SDS011;1474;51.460;7.150;2024-01-16T09:30:44;1.25;;;0.95;;
2928;SDS011;1474;51.460;7.150;2024-01-16T09:33:10;1.98;;;1.13;;
2928;SDS011;1474;51.460;7.150;2024-01-16T09:35:36;1.60;;;1.05;;
2928;SDS011;1474;51.460;7.150;2024-01-16T09:38:03;1.08;;;0.80;;
2928;SDS011;1474;51.460;7.150;2024-01-16T09:40:31;2.42;;;0.88;;
2928;SDS011;1474;51.460;7.150;2024-01-16T09:42:58;1.95;;;1.20;;
2928;SDS011;1474;51.460;7.150;2024-01-16T09:45:24;1.95;;;0.90;;
2928;SDS011;1474;51.460;7.150;2024-01-16T09:47:50;1.15;;;0.85;;
2928;SDS011;1474;51.460;7.150;2024-01-16T09:50:18;2.05;;;0.90;;
2928;SDS011;1474;51.460;7.150;2024-01-16T09:52:45;0.80;;;0.77;;
2928;SDS011;1474;51.460;7.150;2024-01-16T09:55:12;2.45;;;0.90;;
2928;SDS011;1474;51.460;7.150;2024-01-16T09:57:39;1.60;;;1.10;;
2928;SDS011;1474;51.460;7.150;2024-01-16T10:00:09;1.85;;;1.10;;
2928;SDS011;1474;51.460;7.150;2024-01-16T10:02:40;1.92;;;0.98;;
2928;SDS011;1474;51.460;7.150;2024-01-16T10:05:07;2.53;;;1.27;;
2928;SDS011;1474;51.460;7.150;2024-01-16T10:07:37;1.73;;;0.98;;
2928;SDS011;1474;51.460;7.150;2024-01-16T10:10:04;1.70;;;0.80;;
2928;SDS011;1474;51.460;7.150;2024-01-16T10:12:31;1.58;;;1.10;;
2928;SDS011;1474;51.460;7.150;2024-01-16T10:14:58;1.80;;;0.77;;
2928;SDS011;1474;51.460;7.150;2024-01-16T10:17:43;2.40;;;1.20;;
2928;SDS011;1474;51.460;7.150;2024-01-16T10:20:09;1.48;;;1.00;;
2928;SDS011;1474;51.460;7.150;2024-01-16T10:22:38;1.35;;;0.90;;
2928;SDS011;1474;51.460;7.150;2024-01-16T10:27:42;1.98;;;1.10;;
2928;SDS011;1474;51.460;7.150;2024-01-16T10:30:08;1.52;;;1.00;;
2928;SDS011;1474;51.460;7.150;2024-01-16T10:32:38;1.90;;;1.00;;
2928;SDS011;1474;51.460;7.150;2024-01-16T10:35:10;1.30;;;1.05;;
2928;SDS011;1474;51.460;7.150;2024-01-16T10:37:45;1.15;;;1.00;;
2928;SDS011;1474;51.460;7.150;2024-01-16T10:40:16;1.67;;;0.90;;
2928;SDS011;1474;51.460;7.150;2024-01-16T10:42:44;1.38;;;0.90;;
2928;SDS011;1474;51.460;7.150;2024-01-16T10:45:29;1.95;;;0.88;;
2928;SDS011;1474;51.460;7.150;2024-01-16T10:48:03;1.80;;;1.00;;
2928;SDS011;1474;51.460;7.150;2024-01-16T10:50:31;1.67;;;0.95;;
2928;SDS011;1474;51.460;7.150;2024-01-16T10:53:00;1.30;;;0.95;;
2928;SDS011;1474;51.460;7.150;2024-01-16T10:55:29;1.60;;;0.80;;
2928;SDS011;1474;51.460;7.150;2024-01-16T10:57:56;1.98;;;0.93;;
2928;SDS011;1474;51.460;7.150;2024-01-16T11:00:25;2.17;;;0.70;;
2928;SDS011;1474;51.460;7.150;2024-01-16T11:02:57;3.03;;;0.93;;
2928;SDS011;1474;51.460;7.150;2024-01-16T11:05:31;1.17;;;0.80;;
2928;SDS011;1474;51.460;7.150;2024-01-16T11:07:58;2.45;;;1.05;;
2928;SDS011;1474;51.460;7.150;2024-01-16T11:10:28;1.15;;;0.68;;
2928;SDS011;1474;51.460;7.150;2024-01-16T11:12:56;1.10;;;0.93;;
2928;SDS011;1474;51.460;7.150;2024-01-16T11:15:27;1.45;;;0.98;;
2928;SDS011;1474;51.460;7.150;2024-01-16T11:17:55;1.35;;;0.85;;
2928;SDS011;1474;51.460;7.150;2024-01-16T11:20:22;2.60;;;1.02;;
2928;SDS011;1474;51.460;7.150;2024-01-16T11:22:50;1.70;;;0.93;;
2928;SDS011;1474;51.460;7.150;2024-01-16T11:25:24;2.28;;;0.80;;
2928;SDS011;1474;51.460;7.150;2024-01-16T11:28:09;1.95;;;0.98;;
2928;SDS011;1474;51.460;7.150;2024-01-16T11:30:39;2.28;;;1.10;;
2928;SDS011;1474;51.460;7.150;2024-01-16T11:33:06;1.20;;;0.90;;
2928;SDS011;1474;51.460;7.150;2024-01-16T11:35:57;1.00;;;0.90;;
2928;SDS011;1474;51.460;7.150;2024-01-16T11:38:24;2.22;;;1.23;;
2928;SDS011;1474;51.460;7.150;2024-01-16T11:40:54;1.08;;;0.90;;
2928;SDS011;1474;51.460;7.150;2024-01-16T11:45:59;1.50;;;0.80;;
2928;SDS011;1474;51.460;7.150;2024-01-16T11:48:26;0.98;;;0.77;;
2928;SDS011;1474;51.460;7.150;2024-01-16T11:50:52;1.33;;;0.85;;
2928;SDS011;1474;51.460;7.150;2024-01-16T11:53:35;1.33;;;0.98;;
2928;SDS011;1474;51.460;7.150;2024-01-16T11:58:48;1.30;;;0.63;;
2928;SDS011;1474;51.460;7.150;2024-01-16T12:01:46;2.90;;;1.80;;
2928;SDS011;1474;51.460;7.150;2024-01-16T12:04:18;3.17;;;1.10;;
2928;SDS011;1474;51.460;7.150;2024-01-16T12:06:46;1.10;;;1.00;;
2928;SDS011;1474;51.460;7.150;2024-01-16T12:09:25;1.85;;;0.80;;
2928;SDS011;1474;51.460;7.150;2024-01-16T12:11:55;1.90;;;0.75;;
2928;SDS011;1474;51.460;7.150;2024-01-16T12:14:26;1.63;;;0.98;;
2928;SDS011;1474;51.460;7.150;2024-01-16T12:16:53;1.40;;;0.80;;
2928;SDS011;1474;51.460;7.150;2024-01-16T12:19:35;1.42;;;0.85;;
2928;SDS011;1474;51.460;7.150;2024-01-16T12:22:01;2.50;;;1.08;;
2928;SDS011;1474;51.460;7.150;2024-01-16T12:24:27;2.05;;;0.98;;
2928;SDS011;1474;51.460;7.150;2024-01-16T12:26:57;1.20;;;0.80;;
2928;SDS011;1474;51.460;7.150;2024-01-16T12:29:23;2.45;;;1.02;;
2928;SDS011;1474;51.460;7.150;2024-01-16T12:31:49;1.67;;;1.08;;
2928;SDS011;1474;51.460;7.150;2024-01-16T12:34:15;1.58;;;0.60;;
2928;SDS011;1474;51.460;7.150;2024-01-16T12:36:41;1.35;;;0.70;;
2928;SDS011;1474;51.460;7.150;2024-01-16T12:39:08;1.30;;;1.02;;
2928;SDS011;1474;51.460;7.150;2024-01-16T12:41:38;0.80;;;0.68;;
2928;SDS011;1474;51.460;7.150;2024-01-16T12:44:08;1.73;;;0.70;;
2928;SDS011;1474;51.460;7.150;2024-01-16T12:46:34;1.73;;;1.00;;
2928;SDS011;1474;51.460;7.150;2024-01-16T12:49:03;1.13;;;0.65;;
2928;SDS011;1474;51.460;7.150;2024-01-16T12:51:32;1.42;;;0.77;;
2928;SDS011;1474;51.460;7.150;2024-01-16T12:54:13;1.13;;;0.65;;
2928;SDS011;1474;51.460;7.150;2024-01-16T12:56:41;1.30;;;0.80;;
2928;SDS011;1474;51.460;7.150;2024-01-16T12:59:10;1.13;;;0.80;;
2928;SDS011;1474;51.460;7.150;2024-01-16T13:01:40;2.13;;;1.02;;
2928;SDS011;1474;51.460;7.150;2024-01-16T13:04:11;2.47;;;0.95;;
2928;SDS011;1474;51.460;7.150;2024-01-16T13:06:39;1.38;;;0.77;;
2928;SDS011;1474;51.460;7.150;2024-01-16T13:09:11;1.15;;;0.68;;
2928;SDS011;1474;51.460;7.150;2024-01-16T13:14:18;1.55;;;1.10;;
2928;SDS011;1474;51.460;7.150;2024-01-16T13:16:46;0.80;;;0.80;;
2928;SDS011;1474;51.460;7.150;2024-01-16T13:19:15;0.85;;;0.57;;
2928;SDS011;1474;51.460;7.150;2024-01-16T13:21:45;2.45;;;1.13;;
2928;SDS011;1474;51.460;7.150;2024-01-16T13:24:12;1.13;;;0.90;;
2928;SDS011;1474;51.460;7.150;2024-01-16T13:26:38;1.40;;;0.85;;
2928;SDS011;1474;51.460;7.150;2024-01-16T13:29:04;1.88;;;0.95;;
2928;SDS011;1474;51.460;7.150;2024-01-16T13:31:34;1.88;;;0.90;;
2928;SDS011;1474;51.460;7.150;2024-01-16T13:34:00;1.65;;;0.70;;
2928;SDS011;1474;51.460;7.150;2024-01-16T13:36:25;1.08;;;0.70;;
2928;SDS011;1474;51.460;7.150;2024-01-16T13:38:51;1.45;;;0.80;;
2928;SDS011;1474;51.460;7.150;2024-01-16T13:41:17;1.85;;;0.80;;
2928;SDS011;1474;51.460;7.150;2024-01-16T13:43:43;1.17;;;0.80;;
2928;SDS011;1474;51.460;7.150;2024-01-16T13:46:08;2.92;;;0.80;;
2928;SDS011;1474;51.460;7.150;2024-01-16T13:48:35;1.00;;;0.70;;
2928;SDS011;1474;51.460;7.150;2024-01-16T13:51:01;2.22;;;1.10;;
2928;SDS011;1474;51.460;7.150;2024-01-16T13:53:29;2.67;;;0.90;;
2928;SDS011;1474;51.460;7.150;2024-01-16T13:55:55;1.20;;;0.82;;
2928;SDS011;1474;51.460;7.150;2024-01-16T13:58:21;1.67;;;0.90;;
2928;SDS011;1474;51.460;7.150;2024-01-16T14:00:46;1.60;;;0.85;;
2928;SDS011;1474;51.460;7.150;2024-01-16T14:03:12;1.35;;;0.88;;
2928;SDS011;1474;51.460;7.150;2024-01-16T14:05:38;0.88;;;0.65;;
2928;SDS011;1474;51.460;7.150;2024-01-16T14:08:07;1.20;;;0.80;;
2928;SDS011;1474;51.460;7.150;2024-01-16T14:10:33;1.60;;;0.85;;
2928;SDS011;1474;51.460;7.150;2024-01-16T14:12:59;1.80;;;0.90;;
2928;SDS011;1474;51.460;7.150;2024-01-16T14:15:24;1.63;;;0.98;;
2928;SDS011;1474;51.460;7.150;2024-01-16T14:17:51;1.52;;;0.80;;
2928;SDS011;1474;51.460;7.150;2024-01-16T14:20:19;1.65;;;0.90;;
2928;SDS011;1474;51.460;7.150;2024-01-16T14:22:51;2.25;;;0.88;;
2928;SDS011;1474;51.460;7.150;2024-01-16T14:25:18;2.38;;;0.82;;
2928;SDS011;1474;51.460;7.150;2024-01-16T14:27:45;2.50;;;1.25;;
2928;SDS011;1474;51.460;7.150;2024-01-16T14:30:26;1.08;;;0.73;;
2928;SDS011;1474;51.460;7.150;2024-01-16T14:32:52;1.40;;;0.73;;
2928;SDS011;1474;51.460;7.150;2024-01-16T14:35:18;1.50;;;0.90;;
2928;SDS011;1474;51.460;7.150;2024-01-16T14:37:44;1.23;;;0.70;;
2928;SDS011;1474;51.460;7.150;2024-01-16T14:40:10;1.38;;;0.70;;
2928;SDS011;1474;51.460;7.150;2024-01-16T14:42:46;1.73;;;0.90;;
2928;SDS011;1474;51.460;7.150;2024-01-16T14:45:23;1.63;;;0.68;;
2928;SDS011;1474;51.460;7.150;2024-01-16T14:47:50;1.55;;;0.90;;
2928;SDS011;1474;51.460;7.150;2024-01-16T14:50:18;1.98;;;0.95;;
2928;SDS011;1474;51.460;7.150;2024-01-16T14:52:47;1.75;;;1.10;;
2928;SDS011;1474;51.460;7.150;2024-01-16T14:55:14;1.77;;;1.00;;
2928;SDS011;1474;51.460;7.150;2024-01-16T14:57:40;2.40;;;1.20;;
2928;SDS011;1474;51.460;7.150;2024-01-16T15:00:12;1.80;;;0.88;;
2928;SDS011;1474;51.460;7.150;2024-01-16T15:02:54;1.92;;;1.10;;
2928;SDS011;1474;51.460;7.150;2024-01-16T15:05:20;2.85;;;0.93;;
2928;SDS011;1474;51.460;7.150;2024-01-16T15:07:46;2.67;;;1.00;;
2928;SDS011;1474;51.460;7.150;2024-01-16T15:10:13;8.70;;;1.65;;
2928;SDS011;1474;51.460;7.150;2024-01-16T15:12:42;3.53;;;1.90;;
2928;SDS011;1474;51.460;7.150;2024-01-16T15:15:10;3.45;;;2.05;;
2928;SDS011;1474;51.460;7.150;2024-01-16T15:17:38;5.65;;;2.05;;
2928;SDS011;1474;51.460;7.150;2024-01-16T15:20:09;4.60;;;1.50;;
2928;SDS011;1474;51.460;7.150;2024-01-16T15:22:42;2.92;;;1.25;;
2928;SDS011;1474;51.460;7.150;2024-01-16T15:25:10;2.28;;;1.40;;
2928;SDS011;1474;51.460;7.150;2024-01-16T15:27:39;4.95;;;1.42;;
2928;SDS011;1474;51.460;7.150;2024-01-16T15:30:05;7.13;;;2.50;;
2928;SDS011;1474;51.460;7.150;2024-01-16T15:32:35;11.77;;;3.28;;
2928;SDS011;1474;51.460;7.150;2024-01-16T15:35:05;11.23;;;4.03;;
2928;SDS011;1474;51.460;7.150;2024-01-16T15:37:32;8.68;;;4.78;;
2928;SDS011;1474;51.460;7.150;2024-01-16T15:40:01;9.15;;;4.00;;
2928;SDS011;1474;51.460;7.150;2024-01-16T15:42:31;12.98;;;4.90;;
2928;SDS011;1474;51.460;7.150;2024-01-16T15:45:00;13.32;;;3.90;;
2928;SDS011;1474;51.460;7.150;2024-01-16T15:47:26;11.88;;;4.88;;
2928;SDS011;1474;51.460;7.150;2024-01-16T15:49:51;12.30;;;4.28;;
2928;SDS011;1474;51.460;7.150;2024-01-16T15:52:19;12.73;;;4.38;;
2928;SDS011;1474;51.460;7.150;2024-01-16T15:54:45;12.18;;;4.30;;
2928;SDS011;1474;51.460;7.150;2024-01-16T15:57:10;15.27;;;4.40;;
2928;SDS011;1474;51.460;7.150;2024-01-16T15:59:36;10.80;;;3.72;;
2928;SDS011;1474;51.460;7.150;2024-01-16T16:02:02;9.65;;;4.25;;
2928;SDS011;1474;51.460;7.150;2024-01-16T16:04:28;13.27;;;3.83;;
2928;SDS011;1474;51.460;7.150;2024-01-16T16:06:54;11.05;;;3.67;;
2928;SDS011;1474;51.460;7.150;2024-01-16T16:09:20;8.00;;;3.17;;
2928;SDS011;1474;51.460;7.150;2024-01-16T16:11:47;8.73;;;3.50;;
2928;SDS011;1474;51.460;7.150;2024-01-16T16:14:14;11.48;;;4.00;;
2928;SDS011;1474;51.460;7.150;2024-01-16T16:16:44;8.18;;;2.50;;
2928;SDS011;1474;51.460;7.150;2024-01-16T16:19:14;9.27;;;3.22;;
2928;SDS011;1474;51.460;7.150;2024-01-16T16:21:40;8.98;;;2.75;;
2928;SDS011;1474;51.460;7.150;2024-01-16T16:24:06;7.47;;;2.28;;
2928;SDS011;1474;51.460;7.150;2024-01-16T16:26:33;5.80;;;2.80;;
2928;SDS011;1474;51.460;7.150;2024-01-16T16:29:08;7.07;;;2.42;;
2928;SDS011;1474;51.460;7.150;2024-01-16T16:31:36;5.18;;;2.47;;
2928;SDS011;1474;51.460;7.150;2024-01-16T16:34:05;5.45;;;2.00;;
2928;SDS011;1474;51.460;7.150;2024-01-16T16:36:35;5.43;;;3.30;;
2928;SDS011;1474;51.460;7.150;2024-01-16T16:39:03;6.88;;;2.42;;
2928;SDS011;1474;51.460;7.150;2024-01-16T16:41:30;6.22;;;2.38;;
2928;SDS011;1474;51.460;7.150;2024-01-16T16:43:58;7.45;;;2.50;;
2928;SDS011;1474;51.460;7.150;2024-01-16T16:46:25;4.55;;;2.17;;
2928;SDS011;1474;51.460;7.150;2024-01-16T16:48:57;4.13;;;2.05;;
2928;SDS011;1474;51.460;7.150;2024-01-16T16:51:23;5.40;;;2.83;;
2928;SDS011;1474;51.460;7.150;2024-01-16T16:53:53;5.35;;;2.08;;
2928;SDS011;1474;51.460;7.150;2024-01-16T16:56:19;6.15;;;2.17;;
2928;SDS011;1474;51.460;7.150;2024-01-16T16:58:49;7.28;;;2.22;;
2928;SDS011;1474;51.460;7.150;2024-01-16T17:01:17;5.53;;;2.35;;
2928;SDS011;1474;51.460;7.150;2024-01-16T17:03:45;4.03;;;2.08;;
2928;SDS011;1474;51.460;7.150;2024-01-16T17:06:13;3.47;;;1.95;;
2928;SDS011;1474;51.460;7.150;2024-01-16T17:08:39;4.07;;;1.83;;
2928;SDS011;1474;51.460;7.150;2024-01-16T17:11:09;5.82;;;1.73;;
2928;SDS011;1474;51.460;7.150;2024-01-16T17:13:36;4.15;;;1.60;;
2928;SDS011;1474;51.460;7.150;2024-01-16T17:16:05;4.60;;;1.80;;
2928;SDS011;1474;51.460;7.150;2024-01-16T17:18:33;4.30;;;1.50;;
2928;SDS011;1474;51.460;7.150;2024-01-16T17:21:03;4.82;;;1.70;;
2928;SDS011;1474;51.460;7.150;2024-01-16T17:23:31;5.85;;;2.08;;
2928;SDS011;1474;51.460;7.150;2024-01-16T17:25:58;5.47;;;1.90;;
2928;SDS011;1474;51.460;7.150;2024-01-16T17:28:24;3.33;;;1.80;;
2928;SDS011;1474;51.460;7.150;2024-01-16T17:30:53;5.90;;;2.05;;
2928;SDS011;1474;51.460;7.150;2024-01-16T17:33:24;6.80;;;1.95;;
2928;SDS011;1474;51.460;7.150;2024-01-16T17:35:50;4.53;;;1.60;;
2928;SDS011;1474;51.460;7.150;2024-01-16T17:38:19;5.35;;;1.70;;
2928;SDS011;1474;51.460;7.150;2024-01-16T17:40:46;5.05;;;1.50;;
2928;SDS011;1474;51.460;7.150;2024-01-16T17:43:13;5.22;;;1.55;;
2928;SDS011;1474;51.460;7.150;2024-01-16T17:45:39;5.00;;;1.65;;
2928;SDS011;1474;51.460;7.150;2024-01-16T17:48:05;3.55;;;1.98;;
2928;SDS011;1474;51.460;7.150;2024-01-16T17:50:31;2.58;;;1.35;;
2928;SDS011;1474;51.460;7.150;2024-01-16T17:52:57;2.05;;;1.27;;
2928;SDS011;1474;51.460;7.150;2024-01-16T17:55:30;3.83;;;1.63;;
2928;SDS011;1474;51.460;7.150;2024-01-16T17:58:01;2.88;;;1.63;;
2928;SDS011;1474;51.460;7.150;2024-01-16T18:00:28;3.50;;;1.48;;
2928;SDS011;1474;51.460;7.150;2024-01-16T18:02:56;2.30;;;1.20;;
2928;SDS011;1474;51.460;7.150;2024-01-16T18:05:26;2.85;;;1.50;;
2928;SDS011;1474;51.460;7.150;2024-01-16T18:07:54;3.03;;;1.42;;
2928;SDS011;1474;51.460;7.150;2024-01-16T18:10:21;3.28;;;1.35;;
2928;SDS011;1474;51.460;7.150;2024-01-16T18:12:47;2.83;;;1.40;;
2928;SDS011;1474;51.460;7.150;2024-01-16T18:15:13;3.10;;;1.90;;
2928;SDS011;1474;51.460;7.150;2024-01-16T18:17:39;6.32;;;2.58;;
2928;SDS011;1474;51.460;7.150;2024-01-16T18:20:12;9.23;;;3.40;;
2928;SDS011;1474;51.460;7.150;2024-01-16T18:22:41;8.60;;;4.03;;
2928;SDS011;1474;51.460;7.150;2024-01-16T18:25:09;4.93;;;2.20;;
2928;SDS011;1474;51.460;7.150;2024-01-16T18:27:35;4.55;;;2.42;;
2928;SDS011;1474;51.460;7.150;2024-01-16T18:30:02;4.47;;;2.45;;
2928;SDS011;1474;51.460;7.150;2024-01-16T18:32:31;8.53;;;3.73;;
2928;SDS011;1474;51.460;7.150;2024-01-16T18:35:00;16.48;;;4.72;;
2928;SDS011;1474;51.460;7.150;2024-01-16T18:37:27;20.23;;;6.25;;
2928;SDS011;1474;51.460;7.150;2024-01-16T18:39:52;12.20;;;4.65;;
2928;SDS011;1474;51.460;7.150;2024-01-16T18:42:18;11.43;;;4.03;;
2928;SDS011;1474;51.460;7.150;2024-01-16T18:44:47;11.10;;;4.40;;
2928;SDS011;1474;51.460;7.150;2024-01-16T18:47:13;10.40;;;3.70;;
2928;SDS011;1474;51.460;7.150;2024-01-16T18:49:41;9.77;;;3.63;;
2928;SDS011;1474;51.460;7.150;2024-01-16T18:52:06;7.45;;;3.83;;
2928;SDS011;1474;51.460;7.150;2024-01-16T18:54:32;7.97;;;3.22;;
2928;SDS011;1474;51.460;7.150;2024-01-16T18:56:59;9.27;;;3.70;;
2928;SDS011;1474;51.460;7.150;2024-01-16T18:59:25;8.55;;;3.53;;
2928;SDS011;1474;51.460;7.150;2024-01-16T19:01:53;10.15;;;4.10;;
2928;SDS011;1474;51.460;7.150;2024-01-16T19:04:20;10.65;;;3.78;;
2928;SDS011;1474;51.460;7.150;2024-01-16T19:06:49;6.80;;;3.05;;
2928;SDS011;1474;51.460;7.150;2024-01-16T19:09:16;14.63;;;3.42;;
2928;SDS011;1474;51.460;7.150;2024-01-16T19:11:49;9.50;;;3.00;;
2928;SDS011;1474;51.460;7.150;2024-01-16T19:14:18;5.32;;;3.53;;
2928;SDS011;1474;51.460;7.150;2024-01-16T19:16:45;7.25;;;3.33;;
2928;SDS011;1474;51.460;7.150;2024-01-16T19:19:14;7.93;;;3.22;;
2928;SDS011;1474;51.460;7.150;2024-01-16T19:21:41;8.85;;;3.13;;
2928;SDS011;1474;51.460;7.150;2024-01-16T19:24:07;6.80;;;3.08;;
2928;SDS011;1474;51.460;7.150;2024-01-16T19:26:33;5.95;;;2.97;;
2928;SDS011;1474;51.460;7.150;2024-01-16T19:28:59;5.72;;;2.65;;
2928;SDS011;1474;51.460;7.150;2024-01-16T19:31:25;7.95;;;3.28;;
2928;SDS011;1474;51.460;7.150;2024-01-16T19:33:55;5.55;;;2.38;;
2928;SDS011;1474;51.460;7.150;2024-01-16T19:36:21;6.50;;;2.65;;
2928;SDS011;1474;51.460;7.150;2024-01-16T19:38:46;8.13;;;3.33;;
2928;SDS011;1474;51.460;7.150;2024-01-16T19:41:12;5.53;;;2.30;;
2928;SDS011;1474;51.460;7.150;2024-01-16T19:43:39;7.15;;;3.08;;
2928;SDS011;1474;51.460;7.150;2024-01-16T19:46:05;4.30;;;2.25;;
2928;SDS011;1474;51.460;7.150;2024-01-16T19:48:30;5.75;;;2.60;;
2928;SDS011;1474;51.460;7.150;2024-01-16T19:50:59;7.25;;;2.70;;
2928;SDS011;1474;51.460;7.150;2024-01-16T19:53:25;5.82;;;2.67;;
2928;SDS011;1474;51.460;7.150;2024-01-16T19:55:51;5.60;;;2.85;;
2928;SDS011;1474;51.460;7.150;2024-01-16T19:58:20;7.05;;;3.08;;
2928;SDS011;1474;51.460;7.150;2024-01-16T20:00:45;6.07;;;2.60;;
2928;SDS011;1474;51.460;7.150;2024-01-16T20:03:11;4.90;;;2.58;;
2928;SDS011;1474;51.460;7.150;2024-01-16T20:05:37;5.07;;;2.00;;
2928;SDS011;1474;51.460;7.150;2024-01-16T20:08:07;7.82;;;2.72;;
2928;SDS011;1474;51.460;7.150;2024-01-16T20:10:37;5.37;;;2.43;;
2928;SDS011;1474;51.460;7.150;2024-01-16T20:13:04;4.85;;;2.28;;
2928;SDS011;1474;51.460;7.150;2024-01-16T20:15:30;4.47;;;2.53;;
2928;SDS011;1474;51.460;7.150;2024-01-16T20:17:59;7.25;;;3.00;;
2928;SDS011;1474;51.460;7.150;2024-01-16T20:20:27;6.10;;;2.65;;
2928;SDS011;1474;51.460;7.150;2024-01-16T20:22:55;5.28;;;2.35;;
2928;SDS011;1474;51.460;7.150;2024-01-16T20:25:21;4.10;;;2.20;;
2928;SDS011;1474;51.460;7.150;2024-01-16T20:27:48;3.47;;;2.00;;
2928;SDS011;1474;51.460;7.150;2024-01-16T20:30:16;4.38;;;2.22;;
2928;SDS011;1474;51.460;7.150;2024-01-16T20:32:42;3.78;;;2.38;;
2928;SDS011;1474;51.460;7.150;2024-01-16T20:35:10;6.07;;;2.30;;
2928;SDS011;1474;51.460;7.150;2024-01-16T20:37:38;4.40;;;2.47;;
2928;SDS011;1474;51.460;7.150;2024-01-16T20:40:07;3.78;;;2.10;;
2928;SDS011;1474;51.460;7.150;2024-01-16T20:42:34;5.13;;;2.13;;
2928;SDS011;1474;51.460;7.150;2024-01-16T20:45:00;3.60;;;2.10;;
2928;SDS011;1474;51.460;7.150;2024-01-16T20:47:25;3.63;;;1.92;;
2928;SDS011;1474;51.460;7.150;2024-01-16T20:49:52;4.05;;;2.17;;
2928;SDS011;1474;51.460;7.150;2024-01-16T20:52:18;3.97;;;2.40;;
2928;SDS011;1474;51.460;7.150;2024-01-16T20:54:46;3.40;;;1.83;;
2928;SDS011;1474;51.460;7.150;2024-01-16T20:57:12;4.50;;;2.10;;
2928;SDS011;1474;51.460;7.150;2024-01-16T20:59:39;3.85;;;2.05;;
2928;SDS011;1474;51.460;7.150;2024-01-16T21:02:05;3.60;;;2.00;;
2928;SDS011;1474;51.460;7.150;2024-01-16T21:04:31;4.63;;;2.92;;
2928;SDS011;1474;51.460;7.150;2024-01-16T21:06:57;3.05;;;1.70;;
2928;SDS011;1474;51.460;7.150;2024-01-16T21:09:27;2.88;;;2.00;;
2928;SDS011;1474;51.460;7.150;2024-01-16T21:11:54;3.92;;;2.15;;
2928;SDS011;1474;51.460;7.150;2024-01-16T21:14:21;2.85;;;1.98;;
2928;SDS011;1474;51.460;7.150;2024-01-16T21:16:47;3.55;;;1.60;;
2928;SDS011;1474;51.460;7.150;2024-01-16T21:19:17;3.22;;;1.90;;
2928;SDS011;1474;51.460;7.150;2024-01-16T21:21:46;4.53;;;1.98;;
2928;SDS011;1474;51.460;7.150;2024-01-16T21:24:17;4.40;;;2.13;;
2928;SDS011;1474;51.460;7.150;2024-01-16T21:26:44;5.63;;;2.30;;
2928;SDS011;1474;51.460;7.150;2024-01-16T21:29:11;4.60;;;2.30;;